createdAt,value
2017-11-08T00:00:32.536Z,11.70
2017-11-08T00:03:00.355Z,11.67
2017-11-08T00:05:28.163Z,12.70
2017-11-08T00:07:55.984Z,12.40
2017-11-08T00:10:23.804Z,10.13
2017-11-08T00:12:51.625Z,11.70
2017-11-08T00:15:19.446Z,11.12
2017-11-08T00:17:49.257Z,11.40
2017-11-08T00:20:17.087Z,12.57
2017-11-08T00:22:44.952Z,12.00
2017-11-08T00:25:12.757Z,11.63
2017-11-08T00:27:40.560Z,11.10
2017-11-08T00:30:08.385Z,11.03
2017-11-08T00:32:36.236Z,12.17
2017-11-08T00:35:04.061Z,10.83
2017-11-08T00:37:31.896Z,10.43
2017-11-08T00:39:59.720Z,9.17
2017-11-08T00:42:27.543Z,9.70
2017-11-08T00:44:55.349Z,11.20
2017-11-08T00:47:23.161Z,10.80
2017-11-08T00:49:51.009Z,10.30
2017-11-08T00:52:18.842Z,11.33
2017-11-08T00:54:46.664Z,11.90
2017-11-08T00:57:31.273Z,10.53
2017-11-08T00:59:59.117Z,11.30
2017-11-08T01:02:26.935Z,11.52
2017-11-08T01:04:54.777Z,11.60
2017-11-08T01:07:22.613Z,10.80
2017-11-08T01:09:50.448Z,10.80
2017-11-08T01:12:18.253Z,11.17
2017-11-08T01:14:46.107Z,11.27
2017-11-08T01:17:13.926Z,12.33
2017-11-08T01:19:41.740Z,10.70
2017-11-08T01:22:09.584Z,10.67
2017-11-08T01:24:37.405Z,13.27
2017-11-08T01:27:05.232Z,12.13
2017-11-08T01:29:33.041Z,11.53
2017-11-08T01:32:00.928Z,13.17
2017-11-08T01:34:28.759Z,12.10
2017-11-08T01:37:02.710Z,12.97
2017-11-08T01:39:30.528Z,13.00
2017-11-08T01:42:00.148Z,13.23
2017-11-08T01:44:28.799Z,11.70
2017-11-08T01:46:56.637Z,12.30
2017-11-08T01:49:24.469Z,12.70
2017-11-08T01:51:52.313Z,11.63
2017-11-08T01:54:20.145Z,12.80
2017-11-08T01:56:47.957Z,11.67
2017-11-08T01:59:15.781Z,11.43
2017-11-08T02:01:43.601Z,11.53
2017-11-08T02:04:11.478Z,12.47
2017-11-08T02:06:39.297Z,12.27
2017-11-08T02:09:07.130Z,12.60
2017-11-08T02:11:34.933Z,11.87
2017-11-08T02:14:02.762Z,12.10
2017-11-08T02:16:30.560Z,13.83
2017-11-08T02:19:00.288Z,12.37
2017-11-08T02:21:28.118Z,12.33
2017-11-08T02:23:55.960Z,12.00
2017-11-08T02:26:29.816Z,11.73
2017-11-08T02:28:57.658Z,11.57
2017-11-08T02:31:25.537Z,11.50
2017-11-08T02:33:53.346Z,12.10
2017-11-08T02:36:21.209Z,13.27
2017-11-08T02:38:49.049Z,13.10
2017-11-08T02:41:19.696Z,12.67
2017-11-08T02:43:47.533Z,13.63
2017-11-08T02:46:21.560Z,14.33
2017-11-08T02:48:49.374Z,15.37
2017-11-08T02:51:19.157Z,12.50
2017-11-08T02:53:53.009Z,12.37
2017-11-08T02:56:20.831Z,14.27
2017-11-08T02:58:48.670Z,13.30
2017-11-08T03:01:17.305Z,14.63
2017-11-08T03:03:45.128Z,13.50
2017-11-08T03:06:12.932Z,16.00
2017-11-08T03:08:40.744Z,14.90
2017-11-08T03:11:08.558Z,14.93
2017-11-08T03:13:36.424Z,14.40
2017-11-08T03:16:04.245Z,14.80
2017-11-08T03:18:32.097Z,14.60
2017-11-08T03:20:59.929Z,14.60
2017-11-08T03:23:27.748Z,14.00
2017-11-08T03:25:55.595Z,15.80
2017-11-08T03:28:23.429Z,14.40
2017-11-08T03:30:51.263Z,16.00
2017-11-08T03:33:19.084Z,13.57
2017-11-08T03:35:46.913Z,14.80
2017-11-08T03:38:14.732Z,17.10
2017-11-08T03:40:42.568Z,15.40
2017-11-08T03:43:10.406Z,18.70
2017-11-08T03:45:38.291Z,15.67
2017-11-08T03:48:06.134Z,17.67
2017-11-08T03:50:33.977Z,14.53
2017-11-08T03:53:01.848Z,19.60
2017-11-08T03:55:29.681Z,18.40
2017-11-08T03:57:57.508Z,17.03
2017-11-08T04:00:25.354Z,18.23
2017-11-08T04:02:53.194Z,20.03
2017-11-08T04:05:21.053Z,17.57
2017-11-08T04:07:48.896Z,21.00
2017-11-08T04:10:16.737Z,19.90
2017-11-08T04:12:44.567Z,18.17
2017-11-08T04:15:12.471Z,17.50
2017-11-08T04:17:40.304Z,18.00
2017-11-08T04:20:08.114Z,19.87
2017-11-08T04:22:35.936Z,20.87
2017-11-08T04:25:03.757Z,20.20
2017-11-08T04:27:31.657Z,21.93
2017-11-08T04:29:59.464Z,21.60
2017-11-08T04:32:27.302Z,21.93
2017-11-08T04:34:55.892Z,22.90
2017-11-08T04:37:23.724Z,20.47
2017-11-08T04:39:51.561Z,22.97
2017-11-08T04:42:19.365Z,23.53
2017-11-08T04:44:47.184Z,24.10
2017-11-08T04:47:15.020Z,21.70
2017-11-08T04:49:42.846Z,21.47
2017-11-08T04:52:10.702Z,24.93
2017-11-08T04:54:38.541Z,22.43
2017-11-08T04:57:06.385Z,28.57
2017-11-08T04:59:34.219Z,25.10
2017-11-08T05:02:02.055Z,23.60
2017-11-08T05:04:29.885Z,26.93
2017-11-08T05:06:57.698Z,28.77
2017-11-08T05:09:25.593Z,28.67
2017-11-08T05:11:53.414Z,26.20
2017-11-08T05:14:21.293Z,26.40
2017-11-08T05:16:49.110Z,29.30
2017-11-08T05:19:16.937Z,26.60
2017-11-08T05:21:44.761Z,29.70
2017-11-08T05:24:12.593Z,27.83
2017-11-08T05:26:40.426Z,29.37
2017-11-08T05:29:08.258Z,28.67
2017-11-08T05:31:36.081Z,30.63
2017-11-08T05:34:03.940Z,28.97
2017-11-08T05:36:31.780Z,28.83
2017-11-08T05:38:59.601Z,27.07
2017-11-08T05:41:27.413Z,30.43
2017-11-08T05:43:55.225Z,33.23
2017-11-08T05:46:23.070Z,28.53
2017-11-08T05:48:50.901Z,29.40
2017-11-08T05:51:18.733Z,29.80
2017-11-08T05:53:46.557Z,29.33
2017-11-08T05:56:14.388Z,28.70
2017-11-08T05:58:42.217Z,29.07
2017-11-08T06:01:10.058Z,28.57
2017-11-08T06:03:37.897Z,32.37
2017-11-08T06:06:05.742Z,31.73
2017-11-08T06:08:33.553Z,33.17
2017-11-08T06:11:01.393Z,29.80
2017-11-08T06:13:29.212Z,33.10
2017-11-08T06:15:57.042Z,32.63
2017-11-08T06:18:25.969Z,31.90
2017-11-08T06:20:53.788Z,28.67
2017-11-08T06:23:21.621Z,31.07
2017-11-08T06:25:49.449Z,33.87
2017-11-08T06:28:17.350Z,29.90
2017-11-08T06:30:45.161Z,36.30
2017-11-08T06:33:12.984Z,31.27
2017-11-08T06:35:40.844Z,32.20
2017-11-08T06:38:08.688Z,29.67
2017-11-08T06:40:36.524Z,32.80
2017-11-08T06:43:04.361Z,31.93
2017-11-08T06:45:32.614Z,30.50
2017-11-08T06:48:34.707Z,32.43
2017-11-08T06:51:02.573Z,31.87
2017-11-08T06:53:32.181Z,35.17
2017-11-08T06:56:06.341Z,33.43
2017-11-08T06:58:34.266Z,33.40
2017-11-08T07:01:02.109Z,31.73
2017-11-08T07:06:36.233Z,32.87
2017-11-08T07:09:05.140Z,30.10
2017-11-08T07:11:32.953Z,29.97
2017-11-08T07:14:00.794Z,32.10
2017-11-08T07:16:28.622Z,31.73
2017-11-08T07:18:56.509Z,31.17
2017-11-08T07:21:24.357Z,34.23
2017-11-08T07:23:52.237Z,31.93
2017-11-08T07:26:20.104Z,31.70
2017-11-08T07:28:47.935Z,30.47
2017-11-08T07:31:15.771Z,29.90
2017-11-08T07:33:43.592Z,32.40
2017-11-08T07:36:11.418Z,33.30
2017-11-08T07:38:39.240Z,30.60
2017-11-08T07:41:07.101Z,31.60
2017-11-08T07:43:34.933Z,32.00
2017-11-08T07:46:02.844Z,32.03
2017-11-08T07:48:35.720Z,29.80
2017-11-08T07:51:04.794Z,31.17
2017-11-08T07:56:22.311Z,36.17
2017-11-08T07:58:50.576Z,36.40
2017-11-08T08:01:18.598Z,33.57
2017-11-08T08:03:46.432Z,34.70
2017-11-08T08:06:14.255Z,36.30
2017-11-08T08:08:42.077Z,33.40
2017-11-08T08:11:20.815Z,34.63
2017-11-08T08:13:48.649Z,34.90
2017-11-08T08:16:16.471Z,34.07
2017-11-08T08:18:44.287Z,33.87
2017-11-08T08:21:14.903Z,37.40
2017-11-08T08:23:42.737Z,32.87
2017-11-08T08:26:10.549Z,36.90
2017-11-08T08:28:38.395Z,35.40
2017-11-08T08:31:06.210Z,36.70
2017-11-08T08:33:34.039Z,35.03
2017-11-08T08:36:01.841Z,35.57
2017-11-08T08:38:29.661Z,35.17
2017-11-08T08:40:57.500Z,37.83
2017-11-08T08:43:25.333Z,37.73
2017-11-08T08:45:53.152Z,38.50
2017-11-08T08:48:21.027Z,37.20
2017-11-08T08:50:48.864Z,37.27
2017-11-08T08:53:22.129Z,39.87
2017-11-08T08:55:49.969Z,36.33
2017-11-08T08:58:17.794Z,40.73
2017-11-08T09:00:45.615Z,38.23
2017-11-08T09:03:13.433Z,38.80
2017-11-08T09:05:48.102Z,39.80
2017-11-08T09:08:15.901Z,40.17
2017-11-08T09:10:43.737Z,39.43
2017-11-08T09:13:11.553Z,39.37
2017-11-08T09:15:39.401Z,39.77
2017-11-08T09:18:07.227Z,41.93
2017-11-08T09:20:35.076Z,40.53
2017-11-08T09:23:02.876Z,41.97
2017-11-08T09:25:30.693Z,42.10
2017-11-08T09:27:58.501Z,43.20
2017-11-08T09:30:29.279Z,39.60
2017-11-08T09:32:57.126Z,41.57
2017-11-08T09:35:24.975Z,41.17
2017-11-08T09:37:52.832Z,46.00
2017-11-08T09:40:22.589Z,43.30
2017-11-08T09:42:50.456Z,43.10
2017-11-08T09:45:19.256Z,43.70
2017-11-08T09:47:47.086Z,43.67
2017-11-08T09:50:14.905Z,45.70
2017-11-08T09:52:42.778Z,44.10
2017-11-08T09:55:10.600Z,45.17
2017-11-08T09:57:38.422Z,44.93
2017-11-08T10:00:06.242Z,46.97
2017-11-08T10:02:34.082Z,45.80
2017-11-08T10:05:01.929Z,45.40
2017-11-08T10:07:29.784Z,44.40
2017-11-08T10:09:57.617Z,45.50
2017-11-08T10:12:30.391Z,47.20
2017-11-08T10:14:58.247Z,45.30
2017-11-08T10:17:26.083Z,46.27
2017-11-08T10:19:56.922Z,47.13
2017-11-08T10:22:25.708Z,46.90
2017-11-08T10:24:53.579Z,44.80
2017-11-08T10:27:21.426Z,48.37
2017-11-08T10:29:49.272Z,44.83
2017-11-08T10:32:18.929Z,45.93
2017-11-08T10:34:46.793Z,49.30
2017-11-08T10:37:14.632Z,49.00
2017-11-08T10:39:42.474Z,45.70
2017-11-08T10:42:14.262Z,47.90
2017-11-08T10:44:42.113Z,48.07
2017-11-08T10:47:09.971Z,45.67
2017-11-08T10:49:40.885Z,44.10
2017-11-08T10:52:09.192Z,48.03
2017-11-08T10:54:37.566Z,46.20
2017-11-08T10:57:05.501Z,46.93
2017-11-08T10:59:39.499Z,47.17
2017-11-08T11:02:07.346Z,45.33
2017-11-08T11:04:35.145Z,42.10
2017-11-08T11:07:02.962Z,47.60
2017-11-08T11:09:30.778Z,46.53
2017-11-08T11:11:58.609Z,45.13
2017-11-08T11:14:26.434Z,44.47
2017-11-08T11:16:54.250Z,47.70
2017-11-08T11:19:22.054Z,44.63
2017-11-08T11:21:55.874Z,46.73
2017-11-08T11:24:24.538Z,46.73
2017-11-08T11:26:58.510Z,46.67
2017-11-08T11:29:26.329Z,47.77
2017-11-08T11:31:56.142Z,46.40
2017-11-08T11:34:23.998Z,48.57
2017-11-08T11:36:51.835Z,49.17
2017-11-08T11:39:19.662Z,44.80
2017-11-08T11:41:47.625Z,46.50
2017-11-08T11:44:15.649Z,46.63
2017-11-08T11:46:43.466Z,47.43
2017-11-08T11:49:11.303Z,48.37
2017-11-08T11:51:39.126Z,46.97
2017-11-08T11:54:06.962Z,46.93
2017-11-08T11:56:34.792Z,46.20
2017-11-08T11:59:02.618Z,47.50
2017-11-08T12:01:30.440Z,46.07
2017-11-08T12:03:58.255Z,47.33
2017-11-08T12:06:26.090Z,44.57
2017-11-08T12:08:53.923Z,43.20
2017-11-08T12:11:21.799Z,44.07
2017-11-08T12:13:49.658Z,42.10
2017-11-08T12:16:17.489Z,43.77
2017-11-08T12:18:45.314Z,41.90
2017-11-08T12:21:13.135Z,41.50
2017-11-08T12:23:40.955Z,40.37
2017-11-08T12:26:08.787Z,39.00
2017-11-08T12:28:42.562Z,41.20
2017-11-08T12:31:10.390Z,43.57
2017-11-08T12:33:38.210Z,40.47
2017-11-08T12:36:06.030Z,40.27
2017-11-08T12:38:36.798Z,40.03
2017-11-08T12:41:04.626Z,42.07
2017-11-08T12:43:32.459Z,40.17
2017-11-08T12:46:00.301Z,39.73
2017-11-08T12:48:28.170Z,39.90
2017-11-08T12:50:56.014Z,37.63
2017-11-08T12:53:23.822Z,35.67
2017-11-08T12:55:51.651Z,40.30
2017-11-08T12:58:19.481Z,40.67
2017-11-08T13:00:47.299Z,35.43
2017-11-08T13:03:15.134Z,37.33
2017-11-08T13:05:42.963Z,33.67
2017-11-08T13:08:10.781Z,33.10
2017-11-08T13:10:44.771Z,34.33
2017-11-08T13:13:12.596Z,33.30
2017-11-08T13:15:40.464Z,38.80
2017-11-08T13:18:08.318Z,34.57
2017-11-08T13:20:36.138Z,32.27
2017-11-08T13:23:03.963Z,36.80
2017-11-08T13:25:31.814Z,33.90
2017-11-08T13:27:59.637Z,32.17
2017-11-08T13:30:27.458Z,31.70
2017-11-08T13:32:55.293Z,33.10
2017-11-08T13:35:23.113Z,35.37
2017-11-08T13:37:50.949Z,35.03
2017-11-08T13:40:18.768Z,34.17
2017-11-08T13:42:46.612Z,34.33
2017-11-08T13:45:14.449Z,33.63
2017-11-08T13:47:42.297Z,30.83
2017-11-08T13:50:10.122Z,31.50
2017-11-08T13:52:37.973Z,31.63
2017-11-08T13:55:05.798Z,31.10
2017-11-08T13:57:33.645Z,30.13
2017-11-08T14:00:01.475Z,31.20
2017-11-08T14:02:29.324Z,32.80
2017-11-08T14:04:57.147Z,28.17
2017-11-08T14:07:24.961Z,31.40
2017-11-08T14:09:52.791Z,31.73
2017-11-08T14:12:20.645Z,29.20
2017-11-08T14:14:48.502Z,31.97
2017-11-08T14:17:16.351Z,30.90
2017-11-08T14:19:44.174Z,32.97
2017-11-08T14:22:11.995Z,31.70
2017-11-08T14:24:39.820Z,30.20
2017-11-08T14:27:07.642Z,32.07
2017-11-08T14:29:35.470Z,34.27
2017-11-08T14:32:03.306Z,34.67
2017-11-08T14:34:31.147Z,32.50
2017-11-08T14:36:58.954Z,34.20
2017-11-08T14:39:26.802Z,31.57
2017-11-08T14:41:54.641Z,31.53
2017-11-08T14:44:22.491Z,31.77
2017-11-08T14:46:50.301Z,33.03
2017-11-08T14:49:18.116Z,30.80
2017-11-08T14:51:45.954Z,31.33
2017-11-08T14:54:13.780Z,29.80
2017-11-08T14:56:41.622Z,30.27
2017-11-08T14:59:09.456Z,30.10
2017-11-08T15:01:37.281Z,29.97
2017-11-08T15:04:05.101Z,31.87
2017-11-08T15:06:32.958Z,32.03
2017-11-08T15:09:00.786Z,33.83
2017-11-08T15:11:28.649Z,32.13
2017-11-08T15:13:56.513Z,30.20
2017-11-08T15:16:24.351Z,31.57
2017-11-08T15:18:52.203Z,33.77
2017-11-08T15:21:20.033Z,32.10
2017-11-08T15:23:47.874Z,34.40
2017-11-08T15:26:15.701Z,33.30
2017-11-08T15:28:43.539Z,36.87
2017-11-08T15:31:11.386Z,36.70
2017-11-08T15:33:39.253Z,32.17
2017-11-08T15:36:07.082Z,36.70
2017-11-08T15:38:34.907Z,35.93
2017-11-08T15:41:02.759Z,33.87
2017-11-08T15:43:30.594Z,33.73
2017-11-08T15:45:58.459Z,35.47
2017-11-08T15:48:26.302Z,36.17
2017-11-08T15:50:54.130Z,36.57
2017-11-08T15:53:22.004Z,34.60
2017-11-08T15:55:49.818Z,36.70
2017-11-08T15:58:17.661Z,35.00
2017-11-08T16:00:45.489Z,37.07
2017-11-08T16:03:13.356Z,38.40
2017-11-08T16:05:41.196Z,35.80
2017-11-08T16:08:15.223Z,37.20
2017-11-08T16:10:43.053Z,36.80
2017-11-08T16:13:10.881Z,35.53
2017-11-08T16:15:38.733Z,36.27
2017-11-08T16:18:06.578Z,36.90
2017-11-08T16:20:34.407Z,36.57
2017-11-08T16:23:02.258Z,35.93
2017-11-08T16:25:30.086Z,37.27
2017-11-08T16:27:57.934Z,38.17
2017-11-08T16:30:25.756Z,39.70
2017-11-08T16:32:53.614Z,38.53
2017-11-08T16:35:21.466Z,39.27
2017-11-08T16:37:49.331Z,38.03
2017-11-08T16:40:17.197Z,39.23
2017-11-08T16:42:45.080Z,38.57
2017-11-08T16:45:12.915Z,37.27
2017-11-08T16:47:40.753Z,36.87
2017-11-08T16:50:08.611Z,35.27
2017-11-08T16:52:36.463Z,33.90
2017-11-08T16:55:04.304Z,33.33
2017-11-08T16:57:32.163Z,34.70
2017-11-08T17:00:00.014Z,35.23
2017-11-08T17:02:27.855Z,32.57
2017-11-08T17:04:55.673Z,35.70
2017-11-08T17:07:23.497Z,36.40
2017-11-08T17:09:51.334Z,33.30
2017-11-08T17:12:19.166Z,34.40
2017-11-08T17:14:47.004Z,32.60
2017-11-08T17:17:14.827Z,34.77
2017-11-08T17:19:42.681Z,33.03
2017-11-08T17:22:10.514Z,35.77
2017-11-08T17:24:38.349Z,36.33
2017-11-08T17:27:06.176Z,36.93
2017-11-08T17:29:34.002Z,39.20
2017-11-08T17:32:01.848Z,37.50
2017-11-08T17:34:29.668Z,38.40
2017-11-08T17:36:57.492Z,37.30
2017-11-08T17:39:25.302Z,35.90
2017-11-08T17:41:53.144Z,40.07
2017-11-08T17:44:20.951Z,36.33
2017-11-08T17:46:48.779Z,38.27
2017-11-08T17:49:16.609Z,40.33
2017-11-08T17:51:44.473Z,41.10
2017-11-08T17:54:12.317Z,43.00
2017-11-08T17:56:40.124Z,39.87
2017-11-08T17:59:07.945Z,39.63
2017-11-08T18:01:35.829Z,37.63
2017-11-08T18:04:03.652Z,39.70
2017-11-08T18:06:31.484Z,39.80
2017-11-08T18:08:59.313Z,43.57
2017-11-08T18:11:27.150Z,41.00
2017-11-08T18:13:54.976Z,41.40
2017-11-08T18:16:22.801Z,39.97
2017-11-08T18:18:50.649Z,43.43
2017-11-08T18:21:18.465Z,40.00
2017-11-08T18:23:46.306Z,41.33
2017-11-08T18:26:14.141Z,41.97
2017-11-08T18:28:41.958Z,42.80
2017-11-08T18:31:09.779Z,41.20
2017-11-08T18:33:37.680Z,40.73
2017-11-08T18:36:05.492Z,42.93
2017-11-08T18:38:33.322Z,44.40
2017-11-08T18:41:01.123Z,42.13
2017-11-08T18:43:28.980Z,42.20
2017-11-08T18:45:56.810Z,43.47
2017-11-08T18:48:24.621Z,43.60
2017-11-08T18:50:52.478Z,40.83
2017-11-08T18:53:20.306Z,39.20
2017-11-08T18:55:48.113Z,39.77
2017-11-08T18:58:15.980Z,44.87
2017-11-08T19:00:43.802Z,42.47
2017-11-08T19:03:11.882Z,41.27
2017-11-08T19:05:39.739Z,40.80
2017-11-08T19:08:07.562Z,45.00
2017-11-08T19:10:35.433Z,41.47
2017-11-08T19:13:03.266Z,40.80
2017-11-08T19:15:31.078Z,42.70
2017-11-08T19:17:58.900Z,44.00
2017-11-08T19:20:26.738Z,42.70
2017-11-08T19:22:54.550Z,44.10
2017-11-08T19:25:22.373Z,41.90
2017-11-08T19:27:50.209Z,44.23
2017-11-08T19:30:18.048Z,44.43
2017-11-08T19:32:45.870Z,42.67
2017-11-08T19:35:13.721Z,43.30
2017-11-08T19:37:41.546Z,45.70
2017-11-08T19:40:09.374Z,43.43
2017-11-08T19:42:37.189Z,45.60
2017-11-08T19:45:05.027Z,44.20
2017-11-08T19:47:32.847Z,45.27
2017-11-08T19:50:00.679Z,42.10
2017-11-08T19:52:28.503Z,45.73
2017-11-08T19:54:56.318Z,44.23
2017-11-08T19:57:24.222Z,44.37
2017-11-08T19:59:52.331Z,46.70
2017-11-08T20:02:20.243Z,43.57
2017-11-08T20:04:48.201Z,44.30
2017-11-08T20:07:16.063Z,44.07
2017-11-08T20:09:43.959Z,44.60
2017-11-08T20:12:11.839Z,43.10
2017-11-08T20:14:39.720Z,44.07
2017-11-08T20:17:07.608Z,46.53
2017-11-08T20:19:35.462Z,43.90
2017-11-08T20:22:03.310Z,44.10
2017-11-08T20:24:31.189Z,45.97
2017-11-08T20:26:59.055Z,46.77
2017-11-08T20:29:26.902Z,49.10
2017-11-08T20:31:54.776Z,45.17
2017-11-08T20:34:22.612Z,47.87
2017-11-08T20:36:50.439Z,48.53
2017-11-08T20:39:18.325Z,47.10
2017-11-08T20:41:46.162Z,45.37
2017-11-08T20:44:14.007Z,46.23
2017-11-08T20:46:41.870Z,49.60
2017-11-08T20:49:09.713Z,45.20
2017-11-08T20:51:37.622Z,48.40
2017-11-08T20:54:05.478Z,48.00
2017-11-08T20:56:33.364Z,46.43
2017-11-08T20:59:01.235Z,45.47
2017-11-08T21:01:29.101Z,44.23
2017-11-08T21:03:56.926Z,46.70
2017-11-08T21:06:24.734Z,45.47
2017-11-08T21:08:52.558Z,46.37
2017-11-08T21:11:20.378Z,46.17
2017-11-08T21:13:48.235Z,45.53
2017-11-08T21:16:16.054Z,46.03
2017-11-08T21:18:43.894Z,48.63
2017-11-08T21:21:11.713Z,44.17
2017-11-08T21:23:39.554Z,47.80
2017-11-08T21:26:07.367Z,48.70
2017-11-08T21:28:35.191Z,46.07
2017-11-08T21:31:03.022Z,47.00
2017-11-08T21:33:30.863Z,48.20
2017-11-08T21:35:58.682Z,47.33
2017-11-08T21:38:26.561Z,47.37
2017-11-08T21:40:54.414Z,46.97
2017-11-08T21:43:22.241Z,45.87
2017-11-08T21:45:50.070Z,49.47
2017-11-08T21:48:17.897Z,50.27
2017-11-08T21:50:45.710Z,47.70
2017-11-08T21:53:13.531Z,47.20
2017-11-08T21:55:41.377Z,47.80
2017-11-08T21:58:09.241Z,48.60
2017-11-08T22:00:37.080Z,46.37
2017-11-08T22:03:04.930Z,46.17
2017-11-08T22:05:32.753Z,45.27
2017-11-08T22:08:00.605Z,45.80
2017-11-08T22:10:28.420Z,46.90
2017-11-08T22:12:56.254Z,47.83
2017-11-08T22:15:24.098Z,51.40
2017-11-08T22:17:51.956Z,49.17
2017-11-08T22:20:19.812Z,50.60
2017-11-08T22:22:47.645Z,47.27
2017-11-08T22:25:15.477Z,47.17
2017-11-08T22:27:43.297Z,49.07
2017-11-08T22:30:11.131Z,49.30
2017-11-08T22:32:38.966Z,47.60
2017-11-08T22:35:06.820Z,46.57
2017-11-08T22:37:34.642Z,51.50
2017-11-08T22:40:02.494Z,49.40
2017-11-08T22:42:30.333Z,47.53
2017-11-08T22:44:58.182Z,45.33
2017-11-08T22:47:26.015Z,45.77
2017-11-08T22:49:53.857Z,47.67
2017-11-08T22:52:21.697Z,48.20
2017-11-08T22:54:49.546Z,47.30
2017-11-08T22:57:17.357Z,49.37
2017-11-08T22:59:45.180Z,48.07
2017-11-08T23:02:13.012Z,51.67
2017-11-08T23:04:40.868Z,50.90
2017-11-08T23:07:08.686Z,49.37
2017-11-08T23:09:36.526Z,51.43
2017-11-08T23:12:04.353Z,48.60
2017-11-08T23:14:32.165Z,48.43
2017-11-08T23:16:59.994Z,50.57
2017-11-08T23:19:27.850Z,48.67
2017-11-08T23:21:55.702Z,51.47
2017-11-08T23:24:23.525Z,47.70
2017-11-08T23:26:51.359Z,47.60
2017-11-08T23:29:19.203Z,47.97
2017-11-08T23:31:47.053Z,51.47
2017-11-08T23:34:14.877Z,48.70
2017-11-08T23:36:42.713Z,49.50
2017-11-08T23:39:10.574Z,48.53
2017-11-08T23:41:38.413Z,47.67
2017-11-08T23:44:06.254Z,46.03
2017-11-08T23:46:34.090Z,45.63
2017-11-08T23:49:01.917Z,47.10
2017-11-08T23:51:29.819Z,48.77
2017-11-08T23:54:00.523Z,52.53
2017-11-08T23:56:31.338Z,47.03
2017-11-08T23:58:59.183Z,48.57
